Time;durP1;ratioP1;P1;durP2;ratioP2;P2;SDS_P1;SDS_P2;PMS_P1;PMS_P2;Temp;Humidity;BMP_temperature;BMP_pressure;BME280_temperature;BME280_humidity;BME280_pressure;Samples;Min_cycle;Max_cycle;Signal;HPM_P1;HPM_P2
2022/11/30 00:02:05;;;;;;;32.65;20.67;;;8.80;59.80;;;7.44;64.09;101956.94;12162489;19;21108;-84
2022/11/30 00:06:12;;;;;;;33.38;20.67;;;9.00;59.80;;;7.40;63.88;101964.81;12167076;19;20035;-84
2022/11/30 00:10:13;;;;;;;35.65;19.98;;;8.80;59.80;;;7.32;63.91;101950.28;12166866;19;20018;-84
2022/11/30 00:14:15;;;;;;;31.65;18.23;;;8.80;59.80;;;7.36;64.09;101951.06;12169177;19;20315;-84
2022/11/30 00:18:17;;;;;;;32.85;20.15;;;8.80;59.80;;;7.40;64.03;101962.22;12167457;19;20032;-84
2022/11/30 00:22:19;;;;;;;39.10;22.30;;;8.80;59.80;;;7.19;63.89;101917.66;12161971;19;20099;-84
2022/11/30 00:26:23;;;;;;;36.72;21.90;;;8.70;59.70;;;7.44;64.06;101976.88;12164887;19;20015;-84
2022/11/30 00:30:25;;;;;;;39.27;21.33;;;8.70;59.60;;;7.25;64.04;101940.03;12166436;19;20022;-84
2022/11/30 00:34:29;;;;;;;41.28;22.20;;;8.70;59.70;;;7.32;64.07;101952.88;12165068;19;20125;-84
2022/11/30 00:38:32;;;;;;;39.60;23.63;;;8.70;59.70;;;7.31;63.91;101948.53;12166190;19;20468;-84
2022/11/30 00:42:34;;;;;;;37.05;21.45;;;8.70;59.70;;;7.31;63.82;101956.34;12157338;19;20029;-84
2022/11/30 00:46:36;;;;;;;41.65;22.75;;;8.70;59.80;;;7.24;64.07;101946.13;12164006;19;20267;-84
2022/11/30 00:50:37;;;;;;;38.13;21.75;;;8.60;59.70;;;7.25;63.74;101953.03;12160882;19;20113;-84
2022/11/30 00:54:39;;;;;;;36.00;21.65;;;8.60;59.70;;;7.28;64.04;101963.34;12163218;19;20391;-84
2022/11/30 00:58:41;;;;;;;38.60;21.67;;;8.60;59.80;;;7.18;63.99;101948.84;12159716;19;20039;-84
2022/11/30 01:02:43;;;;;;;37.35;22.10;;;8.60;59.80;;;7.28;63.87;101973.75;12159396;19;20025;-84
2022/11/30 01:06:45;;;;;;;41.47;22.83;;;8.60;59.70;;;7.27;63.88;101985.88;12158915;19;20022;-84
2022/11/30 01:10:52;;;;;;;40.70;23.13;;;8.60;59.70;;;6.86;63.81;101914.88;12156971;19;20302;-84
2022/11/30 01:14:54;;;;;;;42.40;24.38;;;8.50;60.00;;;6.98;63.87;101938.88;12162267;19;20030;-84
2022/11/30 01:18:56;;;;;;;40.85;22.50;;;8.60;59.70;;;7.02;63.93;101956.97;12158290;19;20013;-84
2022/11/30 01:22:57;;;;;;;36.45;21.80;;;8.50;59.70;;;7.11;63.87;101978.44;12156717;19;20036;-84
2022/11/30 01:26:59;;;;;;;46.17;23.08;;;8.50;59.70;;;7.03;64.11;101963.03;12159088;19;20018;-84
2022/11/30 01:31:05;;;;;;;38.70;21.63;;;8.40;59.70;;;6.96;63.83;101957.09;12159036;19;20358;-84
2022/11/30 01:35:07;;;;;;;37.70;19.60;;;8.40;59.80;;;7.01;63.89;101970.81;12160222;19;20018;-84
2022/11/30 01:39:09;;;;;;;36.88;20.20;;;8.40;59.80;;;7.04;64.01;101981.16;12159001;19;20014;-84
2022/11/30 01:43:18;;;;;;;38.78;21.63;;;8.40;59.80;;;7.09;64.04;101994.91;12153508;19;20014;-84
2022/11/30 01:47:52;;;;;;;35.92;21.02;;;8.40;59.90;;;7.00;63.83;101974.31;12156247;19;20418;-84
2022/11/30 01:52:17;;;;;;;37.30;20.08;;;8.40;59.80;;;7.05;63.85;101977.69;12153450;19;20052;-84
2022/11/30 01:56:19;;;;;;;40.67;22.65;;;8.40;59.70;;;7.05;64.03;101966.44;12159171;19;20450;-84
2022/11/30 02:00:21;;;;;;;36.05;21.08;;;8.40;59.70;;;7.12;63.94;101990.53;12157188;19;20292;-84
2022/11/30 02:04:28;;;;;;;39.03;22.08;;;8.40;59.80;;;7.00;63.89;101970.88;12159975;19;20018;-84
2022/11/30 02:08:30;;;;;;;36.80;21.60;;;8.40;59.70;;;7.06;63.91;101983.72;12158766;19;20021;-84
2022/11/30 02:12:50;;;;;;;40.05;22.88;;;8.40;59.80;;;7.03;63.91;101984.66;12156647;19;20050;-84
2022/11/30 02:17:44;;;;;;;42.45;22.75;;;8.40;59.70;;;6.94;63.86;101974.47;12153893;19;20022;-85
2022/11/30 02:22:31;;;;;;;38.53;22.52;;;8.40;59.70;;;7.04;63.82;101988.09;12152703;19;20030;-84
2022/11/30 02:27:06;;;;;;;38.70;21.70;;;8.40;59.70;;;7.00;63.82;101989.06;12144759;19;20018;-84
2022/11/30 02:31:19;;;;;;;40.00;21.87;;;8.30;59.70;;;6.95;63.74;101983.94;12152388;19;20019;-84
2022/11/30 02:35:28;;;;;;;40.25;21.98;;;8.30;59.60;;;6.95;63.89;101991.72;12153607;19;20406;-84
2022/11/30 02:39:30;;;;;;;37.65;21.60;;;8.30;60.10;;;7.00;64.09;101984.72;12153439;19;20017;-85
2022/11/30 02:43:33;;;;;;;39.42;20.75;;;8.30;59.70;;;6.96;63.79;101984.78;12158716;19;20021;-84
2022/11/30 02:47:51;;;;;;;34.92;20.23;;;8.30;59.70;;;6.94;63.86;101987.44;12154334;19;20022;-85
2022/11/30 02:51:55;;;;;;;37.55;21.85;;;8.30;59.70;;;6.96;64.08;101983.03;12154003;19;20726;-84
2022/11/30 02:55:57;;;;;;;38.53;22.35;;;8.30;59.70;;;6.97;64.01;101989.97;12155400;19;20015;-84
2022/11/30 03:00:02;;;;;;;37.28;20.15;;;8.30;60.00;;;6.98;64.09;101985.63;12153145;19;20018;-84
2022/11/30 03:04:04;;;;;;;35.75;20.67;;;8.30;59.70;;;6.93;64.07;101988.31;12153830;19;20014;-84
2022/11/30 03:08:06;;;;;;;37.85;21.88;;;8.50;59.80;;;6.89;63.86;101984.06;12155932;19;20019;-84
2022/11/30 03:12:08;;;;;;;40.45;20.98;;;8.30;59.70;;;6.68;63.93;101948.16;12151787;19;20014;-85
2022/11/30 03:16:12;;;;;;;35.88;20.92;;;8.30;59.70;;;6.88;63.85;101990.13;12155914;19;20812;-84
2022/11/30 03:20:13;;;;;;;40.45;21.83;;;8.30;59.70;;;7.04;64.02;102014.91;12152740;19;20021;-84
2022/11/30 03:24:15;;;;;;;34.05;19.20;;;8.50;59.80;;;6.99;63.80;102019.34;12155154;19;20018;-84
2022/11/30 03:28:17;;;;;;;36.10;20.83;;;8.30;59.70;;;7.03;63.95;102023.59;12155402;19;20466;-84
2022/11/30 03:32:19;;;;;;;37.00;20.40;;;8.30;59.70;;;7.03;63.87;102021.00;12151704;19;20018;-84
2022/11/30 03:36:21;;;;;;;36.40;20.65;;;8.30;59.70;;;6.99;63.84;102008.94;12155978;19;20018;-84
2022/11/30 03:40:23;;;;;;;44.72;23.13;;;8.30;59.60;;;7.02;63.79;102019.31;12153051;19;20011;-84
2022/11/30 03:44:25;;;;;;;36.90;21.13;;;8.30;59.60;;;6.99;63.90;102021.09;12153198;19;20306;-84
2022/11/30 03:48:27;;;;;;;36.72;21.50;;;8.30;59.60;;;6.95;63.85;102016.84;12154136;19;20416;-83
2022/11/30 03:52:28;;;;;;;47.72;25.50;;;8.30;59.60;;;6.90;63.76;102016.09;12151954;19;20378;-84
2022/11/30 03:56:30;;;;;;;41.08;23.30;;;8.20;59.50;;;6.92;63.84;102022.97;12154079;19;20432;-84
2022/11/30 04:00:32;;;;;;;38.08;21.13;;;8.20;59.60;;;6.90;64.03;102024.72;12149988;19;20014;-84
2022/11/30 04:04:34;;;;;;;39.35;21.23;;;8.20;59.60;;;6.86;63.85;102029.13;12152927;19;20047;-84
2022/11/30 04:08:37;;;;;;;38.70;22.17;;;8.30;59.70;;;6.87;64.02;102032.56;12154453;19;20014;-84
2022/11/30 04:12:39;;;;;;;36.35;20.35;;;8.20;59.60;;;6.89;63.81;102033.41;12149749;19;20029;-84
2022/11/30 04:16:41;;;;;;;33.45;19.38;;;8.20;59.70;;;6.81;63.77;102030.94;12160726;19;20025;-83
2022/11/30 04:20:44;;;;;;;38.17;20.65;;;8.20;59.60;;;6.88;64.01;102034.28;12158525;19;20028;-84
2022/11/30 04:24:45;;;;;;;35.88;20.67;;;8.40;59.70;;;6.73;63.79;102014.66;12164071;19;20035;-84
2022/11/30 04:28:47;;;;;;;41.17;22.00;;;8.20;59.60;;;6.91;64.01;102051.53;12161158;19;20014;-84
2022/11/30 04:32:49;;;;;;;46.95;25.95;;;8.20;59.60;;;6.85;64.08;102036.94;12162442;19;20007;-84
2022/11/30 04:36:51;;;;;;;38.20;23.23;;;8.20;59.50;;;6.84;63.76;102037.81;12163571;19;20299;-83
2022/11/30 04:40:54;;;;;;;37.42;21.35;;;8.20;59.50;;;6.79;64.03;102043.09;12157189;19;20022;-83
2022/11/30 04:44:55;;;;;;;41.13;23.13;;;8.10;59.60;;;6.80;64.09;102044.78;12157627;19;20022;-84
2022/11/30 04:48:57;;;;;;;42.67;22.08;;;8.20;59.60;;;6.83;63.92;102049.06;12161106;19;20925;-84
2022/11/30 04:52:59;;;;;;;39.88;20.75;;;8.30;59.60;;;6.85;63.92;102053.38;12157422;19;20472;-84
2022/11/30 04:57:01;;;;;;;41.53;24.52;;;8.10;59.60;;;6.57;63.80;102011.47;12161411;19;20326;-84
2022/11/30 05:01:03;;;;;;;40.70;22.65;;;8.10;59.50;;;6.82;63.96;102058.63;12149786;19;20010;-83
2022/11/30 05:05:05;;;;;;;35.60;20.92;;;8.10;59.50;;;6.80;63.92;102051.72;12162083;19;20086;-84
2022/11/30 05:09:08;;;;;;;40.85;22.45;;;8.10;59.50;;;6.46;63.73;101997.84;12162332;19;20272;-85
2022/11/30 05:13:09;;;;;;;36.20;21.65;;;8.10;59.60;;;6.69;63.94;102038.94;12161287;19;20022;-84
2022/11/30 05:17:11;;;;;;;38.72;21.70;;;8.10;59.60;;;6.83;63.95;102068.13;12162278;19;20299;-85
2022/11/30 05:21:13;;;;;;;36.85;21.20;;;8.10;59.60;;;6.68;63.94;102045.03;12158570;19;20022;-85
2022/11/30 05:25:15;;;;;;;39.28;21.23;;;8.10;59.60;;;6.69;63.90;102051.94;12159449;19;20018;-84
2022/11/30 05:29:17;;;;;;;36.30;19.30;;;8.30;59.70;;;6.74;63.79;102064.84;12156132;19;20423;-85
2022/11/30 05:33:19;;;;;;;41.67;20.58;;;8.10;59.60;;;6.70;63.95;102065.75;12150318;19;20046;-85
2022/11/30 05:37:21;;;;;;;40.00;22.02;;;8.10;59.60;;;6.75;63.84;102080.41;12153108;19;20039;-85
2022/11/30 05:41:23;;;;;;;38.55;20.73;;;8.10;59.60;;;6.76;63.75;102078.66;12151846;19;20011;-84
2022/11/30 05:45:25;;;;;;;37.65;21.70;;;8.10;59.50;;;6.71;63.92;102081.31;12160323;19;20813;-85
2022/11/30 05:49:26;;;;;;;42.80;23.45;;;8.20;59.60;;;6.75;63.93;102083.00;12154076;19;20023;-85
2022/11/30 05:53:28;;;;;;;37.28;21.42;;;8.10;59.50;;;6.77;63.92;102086.38;12152446;19;20569;-84
2022/11/30 05:57:30;;;;;;;34.25;21.27;;;8.10;59.50;;;6.71;63.99;102080.47;12159833;19;20022;-84
2022/11/30 06:01:32;;;;;;;40.83;22.75;;;8.00;59.50;;;6.62;63.90;102078.88;12157045;19;20596;-85
2022/11/30 06:05:35;;;;;;;36.47;19.88;;;8.00;59.50;;;6.77;63.90;102107.16;12158743;19;20014;-85
2022/11/30 06:09:38;;;;;;;39.10;21.95;;;8.00;59.50;;;6.59;63.83;102073.75;12155811;19;21363;-85
2022/11/30 06:13:40;;;;;;;35.90;20.70;;;8.10;59.50;;;6.65;63.97;102090.06;12158064;19;20022;-85
2022/11/30 06:17:42;;;;;;;37.83;19.92;;;8.10;59.50;;;6.76;64.02;102104.59;12158742;19;20019;-85
2022/11/30 06:21:44;;;;;;;34.28;18.95;;;8.10;59.60;;;6.68;63.81;102088.31;12149041;19;20468;-85
2022/11/30 06:25:45;;;;;;;33.42;19.50;;;8.00;59.50;;;6.77;63.91;102109.75;12153924;19;20767;-85
2022/11/30 06:29:47;;;;;;;38.40;21.33;;;8.10;59.60;;;6.76;63.79;102115.84;12154898;19;20302;-85
2022/11/30 06:33:49;;;;;;;38.53;20.30;;;8.00;59.50;;;6.81;63.78;102120.97;12153127;19;20011;-85
2022/11/30 06:37:50;;;;;;;38.75;20.65;;;8.10;59.50;;;6.74;63.60;102120.19;12153996;19;20038;-85
2022/11/30 06:41:52;;;;;;;33.67;19.08;;;8.10;59.40;;;6.77;63.93;102122.75;12143452;19;20018;-85
2022/11/30 06:45:54;;;;;;;33.35;19.73;;;8.10;59.50;;;6.56;63.88;102087.63;12146238;19;20283;-85
2022/11/30 06:49:56;;;;;;;34.15;18.98;;;8.10;59.50;;;6.78;63.76;102126.22;12149351;19;20022;-85
2022/11/30 06:53:58;;;;;;;32.67;20.05;;;8.10;59.50;;;6.80;63.91;102137.41;12151243;19;20022;-86
2022/11/30 06:58:09;;;;;;;35.35;19.30;;;8.10;59.50;;;6.70;63.76;102126.34;12154448;19;20014;-86
2022/11/30 07:02:13;;;;;;;36.10;20.42;;;8.10;59.50;;;6.68;63.91;102117.72;12150716;19;20027;-85
2022/11/30 07:06:15;;;;;;;38.35;21.95;;;8.30;59.50;;;6.72;63.93;102137.53;12154473;19;20440;-85
2022/11/30 07:10:17;;;;;;;41.13;21.38;;;8.10;59.40;;;6.38;63.87;102077.56;12145100;19;21210;-85
2022/11/30 07:14:19;;;;;;;35.83;21.40;;;8.10;59.40;;;6.69;63.89;102126.34;12153411;19;20031;-85
2022/11/30 07:18:21;;;;;;;36.80;19.73;;;8.10;59.40;;;6.77;63.74;102148.69;12152788;19;20010;-85
2022/11/30 07:22:23;;;;;;;33.38;20.08;;;8.10;59.50;;;6.75;63.87;102149.59;12150369;19;20018;-85
2022/11/30 07:26:25;;;;;;;41.78;22.08;;;8.10;59.50;;;6.75;63.90;102162.59;12154523;19;20022;-86
2022/11/30 07:30:26;;;;;;;36.40;20.60;;;8.30;59.50;;;6.41;63.88;102106.03;12153762;19;20037;-88
2022/11/30 07:34:28;;;;;;;36.35;20.80;;;8.10;59.50;;;6.74;63.69;102172.13;12154669;19;20895;-85
2022/11/30 07:38:30;;;;;;;40.60;20.58;;;8.10;59.50;;;6.64;63.95;102157.56;12156170;19;20906;-86
2022/11/30 07:42:32;;;;;;;37.85;21.10;;;8.10;59.50;;;6.75;63.89;102186.84;12150918;19;20714;-86
2022/11/30 07:46:36;;;;;;;35.65;21.50;;;8.00;59.50;;;6.46;63.74;102145.75;12153557;19;20018;-86
2022/11/30 07:50:37;;;;;;;37.92;20.45;;;8.00;59.50;;;6.67;63.88;102167.94;12152585;19;20891;-85
2022/11/30 07:54:39;;;;;;;37.90;20.45;;;8.00;59.50;;;6.64;63.94;102163.63;12165398;19;20018;-86
2022/11/30 07:58:41;;;;;;;37.63;20.95;;;8.00;59.60;;;6.74;63.78;102181.66;12167078;19;20010;-86
2022/11/30 08:02:43;;;;;;;34.55;20.63;;;8.00;59.50;;;6.66;63.92;102166.19;12161129;19;20474;-86
2022/11/30 08:06:45;;;;;;;43.38;21.05;;;8.10;59.60;;;6.60;63.77;102158.50;12165902;19;20419;-86
2022/11/30 08:10:46;;;;;;;47.33;25.92;;;8.10;59.50;;;6.76;63.87;102198.06;12158561;19;20808;-86
2022/11/30 08:14:48;;;;;;;41.28;23.08;;;8.10;59.50;;;6.63;63.82;102176.63;12162149;19;20038;-85
2022/11/30 08:18:50;;;;;;;41.38;22.45;;;8.30;59.60;;;6.70;63.85;102188.63;12160981;19;20417;-85
2022/11/30 08:22:52;;;;;;;40.67;22.02;;;8.30;59.60;;;6.77;63.90;102205.81;12151073;19;20021;-86
2022/11/30 08:26:54;;;;;;;40.65;22.70;;;8.20;59.60;;;6.79;63.85;102208.41;12163722;19;20014;-86
2022/11/30 08:31:00;;;;;;;38.92;20.60;;;8.10;59.60;;;6.75;63.97;102206.72;12158285;19;20018;-86
2022/11/30 08:35:01;;;;;;;40.25;21.48;;;8.10;59.60;;;6.83;63.84;102210.06;12162271;19;20390;-86
2022/11/30 08:39:06;;;;;;;43.70;22.63;;;8.10;59.60;;;6.67;63.96;102186.09;12160529;19;20055;-86
2022/11/30 08:43:08;;;;;;;39.70;22.33;;;8.10;59.50;;;6.86;63.94;102215.22;12152590;19;20022;-86
2022/11/30 08:47:10;;;;;;;42.60;23.17;;;8.30;59.60;;;6.83;63.93;102212.66;12162899;19;20017;-86
2022/11/30 08:51:15;;;;;;;43.17;23.33;;;8.20;59.50;;;6.76;63.72;102200.66;12157018;19;20025;-86
2022/11/30 08:55:16;;;;;;;39.80;22.90;;;8.20;59.50;;;6.86;63.99;102210.03;12159085;19;20048;-85
2022/11/30 08:59:18;;;;;;;45.30;23.50;;;8.20;59.50;;;6.88;64.00;102218.63;12160186;19;20025;-85
2022/11/30 09:03:20;;;;;;;44.08;25.20;;;8.40;59.60;;;6.93;63.83;102222.00;12147219;19;20015;-86
2022/11/30 09:07:22;;;;;;;42.88;22.88;;;8.50;59.50;;;6.87;63.78;102212.59;12160411;19;20058;-85
2022/11/30 09:11:30;;;;;;;40.40;22.98;;;8.30;59.50;;;6.94;63.86;102217.66;12157000;19;20018;-85
2022/11/30 09:15:32;;;;;;;39.78;21.67;;;8.30;59.50;;;6.96;63.90;102211.56;12153900;19;20014;-86
2022/11/30 09:19:34;;;;;;;44.92;24.95;;;8.40;59.60;;;7.07;64.00;102226.97;12150085;19;20388;-86
2022/11/30 09:23:37;;;;;;;44.13;23.33;;;8.40;59.50;;;7.06;63.95;102213.16;12158798;19;20025;-86
2022/11/30 09:27:38;;;;;;;41.70;24.65;;;8.40;59.50;;;7.09;63.92;102207.03;12163340;19;20410;-85
2022/11/30 09:31:40;;;;;;;38.30;21.70;;;8.40;59.40;;;7.12;63.94;102206.97;12162544;19;20761;-86
2022/11/30 09:35:41;;;;;;;43.60;26.73;;;8.50;59.40;;;7.12;63.95;102208.72;12160480;19;20018;-86
2022/11/30 09:39:43;;;;;;;49.20;27.85;;;8.60;59.30;;;7.14;63.89;102201.78;12154326;19;20018;-86
2022/11/30 09:44:10;;;;;;;41.85;23.33;;;8.50;59.00;;;7.22;63.69;102220.69;12158426;19;20023;-86
2022/11/30 09:48:21;;;;;;;42.58;21.85;;;8.60;59.20;;;7.20;63.74;102214.66;12167373;19;20042;-87
2022/11/30 09:52:41;;;;;;;39.92;23.88;;;8.60;59.20;;;7.21;63.72;102212.03;12154873;19;20925;-86
2022/11/30 09:56:44;;;;;;;42.00;22.90;;;8.60;59.20;;;7.22;63.79;102197.31;12160377;19;20330;-85
2022/11/30 10:00:46;;;;;;;41.22;23.80;;;8.60;59.00;;;7.21;63.73;102188.66;12154697;19;20022;-85
2022/11/30 10:04:48;;;;;;;45.03;25.90;;;8.60;58.90;;;7.27;63.71;102195.50;12163143;19;20748;-86
2022/11/30 10:09:15;;;;;;;42.63;24.83;;;8.60;58.80;;;7.16;63.87;102181.84;12168489;19;20011;-85
2022/11/30 10:13:52;;;;;;;38.33;22.13;;;8.60;58.80;;;7.30;63.76;102196.28;12152703;19;20035;-85
2022/11/30 10:18:10;;;;;;;;;;;8.70;58.90;;;7.35;63.67;102198.81;12155614;19;20031;-85
2022/11/30 10:22:35;;;;;;;28.08;16.80;;;8.70;59.10;;;7.41;63.90;102210.84;12153980;19;20440;-86
2022/11/30 10:26:47;;;;;;;39.47;22.17;;;8.70;59.10;;;7.42;63.89;102202.13;12156409;19;20383;-85
2022/11/30 10:30:49;;;;;;;34.63;20.30;;;8.80;58.80;;;7.41;64.04;102182.25;12151135;19;20022;-85
2022/11/30 10:35:00;;;;;;;39.88;21.83;;;8.90;59.10;;;7.54;64.03;102194.13;12158406;19;20014;-86
2022/11/30 10:39:13;;;;;;;45.30;25.00;;;8.90;59.10;;;7.52;63.64;102181.16;12154735;19;20019;-85
2022/11/30 10:43:46;;;;;;;40.30;24.08;;;8.90;58.80;;;7.64;63.88;102200.00;12151356;19;20022;-85
2022/11/30 10:48:05;;;;;;;44.35;25.40;;;9.10;58.90;;;7.69;63.75;102193.81;12154386;19;20034;-86
2022/11/30 10:52:08;;;;;;;45.80;27.10;;;9.10;58.70;;;7.62;63.82;102175.78;12149721;19;20018;-86
2022/11/30 10:56:13;;;;;;;39.60;22.83;;;9.10;58.50;;;7.79;63.74;102198.84;12152078;19;20482;-85
2022/11/30 11:00:16;;;;;;;45.90;27.67;;;9.10;58.30;;;7.84;63.65;102203.06;12153397;19;20014;-85
2022/11/30 11:04:24;;;;;;;48.45;26.80;;;9.20;58.40;;;7.87;63.57;102205.59;12140244;19;20020;-85
2022/11/30 11:08:26;;;;;;;39.45;23.13;;;9.20;58.40;;;7.89;63.67;102196.03;12152193;19;20813;-85
2022/11/30 11:12:29;;;;;;;48.40;27.60;;;9.30;58.60;;;7.75;63.56;102162.50;12144112;19;20018;-85
2022/11/30 11:16:53;;;;;;;40.88;24.20;;;9.30;58.10;;;7.86;63.66;102187.44;12155646;19;20010;-86
2022/11/30 11:21:18;;;;;;;49.85;26.88;;;9.60;58.20;;;7.97;63.56;102196.72;12142195;19;20018;-85
2022/11/30 11:25:23;;;;;;;45.22;25.80;;;9.40;57.70;;;8.02;63.57;102191.44;12156748;19;20019;-85
2022/11/30 11:29:34;;;;;;;44.30;24.35;;;9.50;58.10;;;8.11;63.65;102199.03;12163858;19;20043;-85
2022/11/30 11:33:35;;;;;;;48.58;28.45;;;9.50;58.30;;;8.24;63.51;102204.84;12165970;19;21035;-85
2022/11/30 11:37:40;;;;;;;57.58;33.17;;;9.50;58.00;;;8.09;63.51;102172.19;12166623;19;20371;-85
2022/11/30 11:41:41;;;;;;;49.00;29.85;;;9.60;57.90;;;8.19;63.45;102178.91;12162371;19;20035;-85
2022/11/30 11:45:55;;;;;;;47.53;27.50;;;9.70;58.10;;;8.44;63.34;102214.00;12166418;19;20484;-85
2022/11/30 11:50:12;;;;;;;55.38;30.75;;;9.70;57.80;;;8.53;63.22;102224.19;12167764;19;20364;-85
2022/11/30 11:54:43;;;;;;;42.60;26.00;;;9.80;57.20;;;8.48;63.33;102206.09;12168895;19;20038;-86
2022/11/30 11:59:09;;;;;;;36.83;21.42;;;9.90;57.60;;;8.54;63.20;102216.34;12167061;19;20018;-85
2022/11/30 12:03:30;;;;;;;39.33;23.33;;;10.00;57.60;;;8.68;63.24;102230.81;12161746;19;20022;-86
2022/11/30 12:07:45;;;;;;;45.88;28.20;;;10.10;57.40;;;8.63;63.10;102223.09;12169636;19;20018;-87
2022/11/30 12:11:48;;;;;;;49.65;30.15;;;10.10;56.90;;;8.64;62.94;102238.69;12166306;19;20106;-87
2022/11/30 12:16:25;;;;;;;54.70;31.60;;;10.10;56.60;;;8.59;62.72;102250.13;12171892;19;20022;-86
2022/11/30 12:21:10;;;;;;;61.35;31.15;;;10.00;55.90;;;8.36;62.88;102237.56;12170549;19;20022;-86
2022/11/30 12:25:46;;;;;;;50.15;27.77;;;9.90;56.10;;;8.32;62.83;102251.53;12173524;19;20019;-86
2022/11/30 12:30:44;;;;;;;55.70;30.45;;;9.80;56.60;;;8.09;62.72;102244.19;12169952;19;20614;-86
2022/11/30 12:35:40;;;;;;;59.85;31.80;;;9.70;56.30;;;7.94;62.71;102251.44;12167933;19;20613;-87
2022/11/30 12:39:58;;;;;;;51.40;29.07;;;9.50;56.00;;;7.84;62.42;102256.84;12162246;19;20018;-87
2022/11/30 12:44:46;;;;;;;54.38;30.75;;;9.50;56.20;;;7.61;62.60;102257.25;12173329;19;20279;-86
2022/11/30 12:49:27;;;;;;;52.38;27.10;;;9.20;56.10;;;7.57;62.57;102264.25;12170059;19;20446;-86
2022/11/30 12:53:35;;;;;;;57.28;30.00;;;9.00;56.60;;;7.48;62.39;102267.00;12172929;19;20759;-86
2022/11/30 12:57:58;;;;;;;50.97;28.42;;;8.90;56.40;;;7.32;62.20;102275.06;12165524;19;20319;-86
2022/11/30 13:02:29;;;;;;;49.83;25.67;;;8.70;56.30;;;7.18;62.33;102273.56;12167069;19;20475;-86
2022/11/30 13:06:43;;;;;;;43.95;22.60;;;8.60;56.70;;;7.03;62.40;102270.34;12169293;19;20112;-86
2022/11/30 13:10:54;;;;;;;44.03;23.05;;;8.40;56.80;;;6.99;62.40;102284.25;12160309;19;20667;-86
2022/11/30 13:14:59;;;;;;;42.63;22.98;;;8.30;56.90;;;6.83;62.58;102267.16;12160699;19;20049;-86
2022/11/30 13:19:37;;;;;;;45.08;24.13;;;8.20;57.10;;;6.74;62.40;102262.13;12160193;19;20037;-86
2022/11/30 13:24:36;;;;;;;47.58;23.05;;;8.10;56.90;;;6.73;62.27;102300.22;12157817;19;20573;-86
2022/11/30 13:28:40;;;;;;;54.08;24.83;;;8.00;57.20;;;6.64;62.48;102288.22;12157717;19;20017;-86
2022/11/30 13:32:44;;;;;;;54.90;24.73;;;7.90;57.10;;;6.47;62.49;102279.78;12147124;19;20022;-86
2022/11/30 13:36:46;;;;;;;46.77;22.80;;;7.80;57.30;;;6.35;62.63;102269.59;12152819;19;20019;-86
2022/11/30 13:41:07;;;;;;;48.55;23.95;;;7.80;57.50;;;6.42;62.28;102289.38;12149059;19;20426;-85
2022/11/30 13:45:12;;;;;;;52.40;23.40;;;7.70;57.60;;;6.39;62.53;102294.59;12146347;19;20117;-86
2022/11/30 13:49:33;;;;;;;48.75;23.00;;;7.60;57.60;;;6.14;62.21;102255.13;12146452;19;20113;-86
2022/11/30 13:53:37;;;;;;;49.63;24.33;;;7.60;57.80;;;6.29;62.52;102282.63;12147338;19;20469;-86
2022/11/30 13:57:39;;;;;;;47.30;23.57;;;7.50;57.70;;;6.23;62.33;102287.88;12153664;19;20383;-86
2022/11/30 14:01:41;;;;;;;47.03;22.85;;;7.50;57.80;;;6.10;62.58;102272.47;12144882;19;20075;-86
2022/11/30 14:05:57;;;;;;;53.55;25.73;;;7.40;57.80;;;6.13;62.36;102289.72;12150604;19;20011;-86
2022/11/30 14:09:59;;;;;;;48.72;25.48;;;7.40;57.90;;;5.76;62.50;102233.91;12147542;19;20424;-85
2022/11/30 14:14:38;;;;;;;49.33;25.08;;;7.40;57.90;;;6.04;62.29;102293.28;12145317;19;20714;-85
2022/11/30 14:18:43;;;;;;;47.75;23.77;;;7.30;57.90;;;5.97;62.29;102295.09;12150827;19;20053;-85
2022/11/30 14:22:46;;;;;;;55.55;25.23;;;7.20;57.90;;;5.88;62.51;102296.88;12145173;19;20019;-85
2022/11/30 14:26:50;;;;;;;57.03;25.65;;;7.20;57.80;;;5.78;62.47;102298.72;12146789;19;20022;-86
2022/11/30 14:30:54;;;;;;;49.65;22.98;;;7.10;57.80;;;5.63;62.38;102297.13;12151586;19;20444;-86
2022/11/30 14:35:15;;;;;;;52.17;23.85;;;7.00;57.90;;;5.59;62.36;102299.75;12153454;19;20046;-86
2022/11/30 14:39:27;;;;;;;49.00;23.42;;;7.00;58.00;;;5.52;62.40;102299.81;12150914;19;20030;-86
2022/11/30 14:43:29;;;;;;;51.38;24.00;;;6.90;57.80;;;5.24;62.37;102259.47;12148835;19;20577;-86
2022/11/30 14:47:37;;;;;;;47.63;21.00;;;6.80;57.90;;;5.47;62.63;102311.94;12150493;19;20019;-86
2022/11/30 14:51:41;;;;;;;46.92;21.50;;;6.80;58.10;;;5.44;62.73;102308.53;12147243;19;20022;-86
2022/11/30 14:56:28;;;;;;;44.00;20.50;;;6.70;58.20;;;5.44;62.43;102308.53;12150185;19;20029;-86
2022/11/30 15:00:38;;;;;;;46.08;20.80;;;6.70;58.20;;;5.36;62.57;102298.22;12142045;19;20075;-86
2022/11/30 15:04:39;;;;;;;50.75;21.73;;;6.70;58.30;;;5.41;62.54;102311.16;12141672;19;20256;-86
2022/11/30 15:08:54;;;;;;;54.90;25.52;;;6.70;58.30;;;5.25;62.64;102287.94;12149822;19;20318;-85
2022/11/30 15:12:59;;;;;;;51.20;23.65;;;6.70;58.30;;;5.40;62.72;102320.66;12149502;19;20844;-85
2022/11/30 15:17:01;;;;;;;61.47;25.67;;;6.70;58.30;;;5.33;62.41;102311.19;12145015;19;20283;-85
2022/11/30 15:21:16;;;;;;;59.22;26.35;;;6.60;58.20;;;5.32;62.22;102319.84;12147101;19;20046;-85
2022/11/30 15:25:20;;;;;;;57.05;25.25;;;6.60;58.20;;;4.94;62.60;102265.72;12151741;19;20041;-85
2022/11/30 15:29:35;;;;;;;57.07;22.93;;;6.80;58.30;;;5.20;62.47;102315.59;12149924;19;20418;-85
2022/11/30 15:33:44;;;;;;;;;;;6.60;58.40;;;5.19;62.69;102319.06;12148577;19;20283;-85
2022/11/30 15:37:46;;;;;;;38.88;18.92;;;6.50;58.30;;;5.15;62.71;102303.56;12149927;19;20006;-85
2022/11/30 15:42:00;;;;;;;57.08;24.55;;;6.50;58.40;;;5.14;62.76;102313.06;12145650;19;20019;-85
2022/11/30 15:46:04;;;;;;;64.32;27.95;;;6.50;58.50;;;4.77;62.71;102255.50;12148674;19;20394;-86
2022/11/30 15:50:29;;;;;;;57.00;24.17;;;6.40;58.50;;;5.16;62.53;102329.47;12145445;19;20018;-87
2022/11/30 15:54:57;;;;;;;55.10;22.90;;;6.50;58.60;;;5.02;62.51;102300.19;12148815;19;21595;-86
2022/11/30 15:59:22;;;;;;;55.47;24.63;;;6.40;58.70;;;5.06;62.65;102320.03;12151680;19;20887;-86
2022/11/30 16:03:24;;;;;;;51.85;22.77;;;6.50;58.70;;;5.04;62.70;102321.75;12138265;19;20922;-86
2022/11/30 16:07:58;;;;;;;51.03;23.13;;;6.40;58.60;;;5.04;62.91;102329.53;12143065;19;20386;-86
2022/11/30 16:12:01;;;;;;;47.47;20.98;;;6.40;58.70;;;5.00;62.72;102315.75;12142951;19;20035;-85
2022/11/30 16:16:11;;;;;;;50.03;21.75;;;6.40;58.80;;;5.07;62.89;102335.53;12162540;19;20021;-85
2022/11/30 16:20:14;;;;;;;48.70;22.73;;;6.40;58.80;;;4.68;62.76;102284.03;12160933;19;20055;-86
2022/11/30 16:24:15;;;;;;;51.95;22.48;;;6.40;58.80;;;5.10;62.89;102351.06;12163244;19;20026;-86
2022/11/30 16:28:19;;;;;;;46.92;21.60;;;6.60;58.90;;;5.07;62.81;102345.03;12164150;19;20945;-86
2022/11/30 16:32:21;;;;;;;49.67;20.75;;;6.40;58.90;;;5.00;62.80;102333.88;12161929;19;20023;-86
2022/11/30 16:36:23;;;;;;;38.80;17.63;;;6.40;58.90;;;5.11;62.88;102354.50;12161402;19;20019;-86
2022/11/30 16:40:25;;;;;;;41.00;18.13;;;6.50;59.40;;;5.16;62.79;102352.75;12158883;19;20858;-86
2022/11/30 16:44:27;;;;;;;48.22;22.17;;;6.50;59.00;;;5.15;62.98;102356.19;12161852;19;20017;-85
2022/11/30 16:48:29;;;;;;;47.92;24.02;;;6.50;58.90;;;4.81;62.70;102303.78;12159094;19;20468;-86
2022/11/30 16:52:31;;;;;;;47.00;20.80;;;6.50;58.80;;;5.00;62.94;102338.19;12159682;19;20030;-86
2022/11/30 16:56:33;;;;;;;44.85;18.00;;;6.50;58.80;;;5.04;63.00;102352.81;12163375;19;20025;-86
2022/11/30 17:00:36;;;;;;;56.85;23.45;;;6.50;58.90;;;4.99;63.03;102342.47;12159957;19;20027;-86